sensor_id;sensor_type;location;lat;lon;timestamp;P1;durP1;ratioP1;P2;durP2;ratioP2
27333;SDS011;14817;57.104;-2.094;2023-04-25T00:00:55;9.05;;;2.25;;
27333;SDS011;14817;57.104;-2.094;2023-04-25T00:03:22;6.63;;;1.95;;
27333;SDS011;14817;57.104;-2.094;2023-04-25T00:05:51;9.48;;;1.75;;
27333;SDS011;14817;57.104;-2.094;2023-04-25T00:08:18;6.22;;;1.70;;
27333;SDS011;14817;57.104;-2.094;2023-04-25T00:10:45;6.22;;;2.35;;
27333;SDS011;14817;57.104;-2.094;2023-04-25T00:13:12;6.63;;;1.60;;
27333;SDS011;14817;57.104;-2.094;2023-04-25T00:15:39;8.20;;;1.77;;
27333;SDS011;14817;57.104;-2.094;2023-04-25T00:18:08;5.60;;;1.67;;
27333;SDS011;14817;57.104;-2.094;2023-04-25T00:20:35;6.97;;;1.70;;
27333;SDS011;14817;57.104;-2.094;2023-04-25T00:23:02;8.20;;;1.88;;
27333;SDS011;14817;57.104;-2.094;2023-04-25T00:25:29;3.60;;;1.67;;
27333;SDS011;14817;57.104;-2.094;2023-04-25T00:27:55;5.03;;;1.52;;
27333;SDS011;14817;57.104;-2.094;2023-04-25T00:30:23;3.00;;;1.40;;
27333;SDS011;14817;57.104;-2.094;2023-04-25T00:32:50;3.97;;;1.60;;
27333;SDS011;14817;57.104;-2.094;2023-04-25T00:35:17;8.38;;;1.80;;
27333;SDS011;14817;57.104;-2.094;2023-04-25T00:37:43;3.15;;;1.35;;
27333;SDS011;14817;57.104;-2.094;2023-04-25T00:40:11;4.97;;;1.80;;
27333;SDS011;14817;57.104;-2.094;2023-04-25T00:42:38;6.07;;;2.00;;
27333;SDS011;14817;57.104;-2.094;2023-04-25T00:45:06;7.80;;;1.90;;
27333;SDS011;14817;57.104;-2.094;2023-04-25T00:47:38;6.35;;;1.60;;
27333;SDS011;14817;57.104;-2.094;2023-04-25T00:50:07;8.05;;;2.15;;
27333;SDS011;14817;57.104;-2.094;2023-04-25T00:52:35;4.85;;;1.52;;
27333;SDS011;14817;57.104;-2.094;2023-04-25T00:55:04;6.32;;;1.95;;
27333;SDS011;14817;57.104;-2.094;2023-04-25T00:57:31;5.85;;;2.00;;
27333;SDS011;14817;57.104;-2.094;2023-04-25T00:59:58;6.45;;;2.08;;
27333;SDS011;14817;57.104;-2.094;2023-04-25T01:02:27;6.05;;;2.60;;
27333;SDS011;14817;57.104;-2.094;2023-04-25T01:04:55;10.38;;;1.70;;
27333;SDS011;14817;57.104;-2.094;2023-04-25T01:07:22;9.52;;;3.08;;
27333;SDS011;14817;57.104;-2.094;2023-04-25T01:09:49;6.07;;;1.42;;
27333;SDS011;14817;57.104;-2.094;2023-04-25T01:12:18;6.20;;;1.80;;
27333;SDS011;14817;57.104;-2.094;2023-04-25T01:14:45;9.15;;;1.75;;
27333;SDS011;14817;57.104;-2.094;2023-04-25T01:17:13;9.18;;;2.15;;
27333;SDS011;14817;57.104;-2.094;2023-04-25T01:19:41;5.63;;;1.65;;
27333;SDS011;14817;57.104;-2.094;2023-04-25T01:22:08;6.28;;;1.80;;
27333;SDS011;14817;57.104;-2.094;2023-04-25T01:24:37;6.47;;;1.58;;
27333;SDS011;14817;57.104;-2.094;2023-04-25T01:27:04;8.57;;;1.98;;
27333;SDS011;14817;57.104;-2.094;2023-04-25T01:29:32;5.03;;;1.38;;
27333;SDS011;14817;57.104;-2.094;2023-04-25T01:31:59;4.95;;;1.55;;
27333;SDS011;14817;57.104;-2.094;2023-04-25T01:34:27;8.75;;;1.30;;
27333;SDS011;14817;57.104;-2.094;2023-04-25T01:36:56;6.40;;;1.52;;
27333;SDS011;14817;57.104;-2.094;2023-04-25T01:39:27;7.88;;;1.90;;
27333;SDS011;14817;57.104;-2.094;2023-04-25T01:41:54;7.07;;;1.48;;
27333;SDS011;14817;57.104;-2.094;2023-04-25T01:44:23;6.03;;;1.40;;
27333;SDS011;14817;57.104;-2.094;2023-04-25T01:46:50;4.35;;;1.48;;
27333;SDS011;14817;57.104;-2.094;2023-04-25T01:49:17;6.93;;;1.45;;
27333;SDS011;14817;57.104;-2.094;2023-04-25T01:51:44;11.10;;;1.38;;
27333;SDS011;14817;57.104;-2.094;2023-04-25T01:54:11;4.75;;;1.65;;
27333;SDS011;14817;57.104;-2.094;2023-04-25T01:56:39;9.02;;;1.85;;
27333;SDS011;14817;57.104;-2.094;2023-04-25T01:59:09;5.85;;;1.55;;
27333;SDS011;14817;57.104;-2.094;2023-04-25T02:01:44;3.70;;;1.17;;
27333;SDS011;14817;57.104;-2.094;2023-04-25T02:04:20;5.85;;;1.63;;
27333;SDS011;14817;57.104;-2.094;2023-04-25T02:06:47;8.63;;;2.13;;
27333;SDS011;14817;57.104;-2.094;2023-04-25T02:09:15;9.30;;;1.90;;
27333;SDS011;14817;57.104;-2.094;2023-04-25T02:11:46;6.00;;;2.13;;
27333;SDS011;14817;57.104;-2.094;2023-04-25T02:14:26;7.88;;;1.80;;
27333;SDS011;14817;57.104;-2.094;2023-04-25T02:17:01;9.32;;;1.73;;
27333;SDS011;14817;57.104;-2.094;2023-04-25T02:19:29;5.82;;;1.55;;
27333;SDS011;14817;57.104;-2.094;2023-04-25T02:21:56;4.00;;;1.60;;
27333;SDS011;14817;57.104;-2.094;2023-04-25T02:24:23;3.30;;;1.40;;
27333;SDS011;14817;57.104;-2.094;2023-04-25T02:26:50;7.20;;;1.55;;
27333;SDS011;14817;57.104;-2.094;2023-04-25T02:29:17;7.63;;;1.52;;
27333;SDS011;14817;57.104;-2.094;2023-04-25T02:31:44;7.57;;;2.13;;
27333;SDS011;14817;57.104;-2.094;2023-04-25T02:34:11;4.90;;;1.40;;
27333;SDS011;14817;57.104;-2.094;2023-04-25T02:36:38;8.68;;;2.03;;
27333;SDS011;14817;57.104;-2.094;2023-04-25T02:39:04;6.00;;;1.50;;
27333;SDS011;14817;57.104;-2.094;2023-04-25T02:41:31;4.47;;;1.60;;
27333;SDS011;14817;57.104;-2.094;2023-04-25T02:43:58;3.92;;;1.45;;
27333;SDS011;14817;57.104;-2.094;2023-04-25T02:46:25;5.18;;;1.38;;
27333;SDS011;14817;57.104;-2.094;2023-04-25T02:49:04;7.38;;;1.75;;
27333;SDS011;14817;57.104;-2.094;2023-04-25T02:51:33;3.40;;;1.40;;
27333;SDS011;14817;57.104;-2.094;2023-04-25T02:54:00;8.95;;;1.48;;
27333;SDS011;14817;57.104;-2.094;2023-04-25T02:56:27;5.20;;;1.35;;
27333;SDS011;14817;57.104;-2.094;2023-04-25T02:58:57;5.00;;;1.35;;
27333;SDS011;14817;57.104;-2.094;2023-04-25T03:01:24;12.02;;;1.80;;
27333;SDS011;14817;57.104;-2.094;2023-04-25T03:03:51;5.28;;;1.30;;
27333;SDS011;14817;57.104;-2.094;2023-04-25T03:06:19;6.32;;;1.45;;
27333;SDS011;14817;57.104;-2.094;2023-04-25T03:08:46;2.22;;;1.00;;
27333;SDS011;14817;57.104;-2.094;2023-04-25T03:11:12;7.93;;;1.42;;
27333;SDS011;14817;57.104;-2.094;2023-04-25T03:13:40;2.97;;;1.20;;
27333;SDS011;14817;57.104;-2.094;2023-04-25T03:16:09;1.83;;;0.70;;
27333;SDS011;14817;57.104;-2.094;2023-04-25T03:18:36;5.72;;;1.25;;
27333;SDS011;14817;57.104;-2.094;2023-04-25T03:21:03;3.63;;;1.20;;
27333;SDS011;14817;57.104;-2.094;2023-04-25T03:23:30;2.38;;;0.93;;
27333;SDS011;14817;57.104;-2.094;2023-04-25T03:25:57;1.55;;;0.93;;
27333;SDS011;14817;57.104;-2.094;2023-04-25T03:28:24;2.70;;;0.90;;
27333;SDS011;14817;57.104;-2.094;2023-04-25T03:30:52;3.95;;;0.80;;
27333;SDS011;14817;57.104;-2.094;2023-04-25T03:33:18;4.22;;;0.80;;
27333;SDS011;14817;57.104;-2.094;2023-04-25T03:35:46;2.53;;;0.95;;
27333;SDS011;14817;57.104;-2.094;2023-04-25T03:38:12;5.38;;;1.20;;
27333;SDS011;14817;57.104;-2.094;2023-04-25T03:40:39;3.20;;;1.10;;
27333;SDS011;14817;57.104;-2.094;2023-04-25T03:43:13;2.33;;;1.35;;
27333;SDS011;14817;57.104;-2.094;2023-04-25T03:45:46;2.17;;;1.00;;
27333;SDS011;14817;57.104;-2.094;2023-04-25T03:48:15;3.35;;;1.00;;
27333;SDS011;14817;57.104;-2.094;2023-04-25T03:50:42;4.55;;;1.20;;
27333;SDS011;14817;57.104;-2.094;2023-04-25T03:53:08;2.65;;;1.00;;
27333;SDS011;14817;57.104;-2.094;2023-04-25T03:55:55;2.92;;;1.15;;
27333;SDS011;14817;57.104;-2.094;2023-04-25T03:58:22;4.22;;;1.40;;
27333;SDS011;14817;57.104;-2.094;2023-04-25T04:00:51;2.88;;;1.27;;
27333;SDS011;14817;57.104;-2.094;2023-04-25T04:03:18;5.13;;;1.38;;
27333;SDS011;14817;57.104;-2.094;2023-04-25T04:05:45;2.90;;;1.40;;
27333;SDS011;14817;57.104;-2.094;2023-04-25T04:08:13;3.60;;;1.30;;
27333;SDS011;14817;57.104;-2.094;2023-04-25T04:10:40;5.03;;;1.33;;
27333;SDS011;14817;57.104;-2.094;2023-04-25T04:13:08;4.80;;;1.38;;
27333;SDS011;14817;57.104;-2.094;2023-04-25T04:15:34;3.15;;;0.93;;
27333;SDS011;14817;57.104;-2.094;2023-04-25T04:18:01;3.17;;;1.55;;
27333;SDS011;14817;57.104;-2.094;2023-04-25T04:20:30;9.07;;;1.67;;
27333;SDS011;14817;57.104;-2.094;2023-04-25T04:22:56;5.05;;;1.25;;
27333;SDS011;14817;57.104;-2.094;2023-04-25T04:25:23;5.82;;;1.40;;
27333;SDS011;14817;57.104;-2.094;2023-04-25T04:28:18;2.42;;;1.38;;
27333;SDS011;14817;57.104;-2.094;2023-04-25T04:30:58;8.95;;;1.42;;
27333;SDS011;14817;57.104;-2.094;2023-04-25T04:33:27;6.00;;;1.58;;
27333;SDS011;14817;57.104;-2.094;2023-04-25T04:35:58;8.35;;;1.80;;
27333;SDS011;14817;57.104;-2.094;2023-04-25T04:38:26;8.32;;;2.10;;
27333;SDS011;14817;57.104;-2.094;2023-04-25T04:40:56;7.00;;;1.53;;
27333;SDS011;14817;57.104;-2.094;2023-04-25T04:43:31;6.07;;;1.50;;
27333;SDS011;14817;57.104;-2.094;2023-04-25T04:46:25;6.05;;;1.35;;
27333;SDS011;14817;57.104;-2.094;2023-04-25T04:49:11;4.78;;;1.42;;
27333;SDS011;14817;57.104;-2.094;2023-04-25T04:51:44;5.07;;;1.45;;
27333;SDS011;14817;57.104;-2.094;2023-04-25T04:54:29;3.33;;;1.75;;
27333;SDS011;14817;57.104;-2.094;2023-04-25T04:57:10;4.97;;;2.05;;
27333;SDS011;14817;57.104;-2.094;2023-04-25T05:00:09;3.25;;;2.05;;
27333;SDS011;14817;57.104;-2.094;2023-04-25T05:02:52;6.22;;;1.88;;
27333;SDS011;14817;57.104;-2.094;2023-04-25T05:05:48;10.95;;;1.77;;
27333;SDS011;14817;57.104;-2.094;2023-04-25T05:08:31;7.55;;;1.52;;
27333;SDS011;14817;57.104;-2.094;2023-04-25T05:11:16;3.45;;;1.40;;
27333;SDS011;14817;57.104;-2.094;2023-04-25T05:14:02;5.28;;;1.30;;
27333;SDS011;14817;57.104;-2.094;2023-04-25T05:17:01;5.90;;;1.40;;
27333;SDS011;14817;57.104;-2.094;2023-04-25T05:19:55;4.78;;;1.25;;
27333;SDS011;14817;57.104;-2.094;2023-04-25T05:22:38;4.32;;;1.13;;
27333;SDS011;14817;57.104;-2.094;2023-04-25T05:25:19;8.80;;;1.80;;
27333;SDS011;14817;57.104;-2.094;2023-04-25T05:27:55;6.93;;;1.40;;
27333;SDS011;14817;57.104;-2.094;2023-04-25T05:30:43;9.43;;;1.30;;
27333;SDS011;14817;57.104;-2.094;2023-04-25T05:33:15;6.25;;;1.40;;
27333;SDS011;14817;57.104;-2.094;2023-04-25T05:35:43;2.97;;;1.50;;
27333;SDS011;14817;57.104;-2.094;2023-04-25T05:38:11;3.78;;;1.27;;
27333;SDS011;14817;57.104;-2.094;2023-04-25T05:40:56;5.43;;;1.15;;
27333;SDS011;14817;57.104;-2.094;2023-04-25T05:43:58;6.40;;;1.63;;
27333;SDS011;14817;57.104;-2.094;2023-04-25T05:46:28;7.07;;;1.20;;
27333;SDS011;14817;57.104;-2.094;2023-04-25T05:49:22;3.47;;;1.17;;
27333;SDS011;14817;57.104;-2.094;2023-04-25T05:52:18;5.30;;;1.27;;
27333;SDS011;14817;57.104;-2.094;2023-04-25T05:55:02;5.60;;;2.80;;
27333;SDS011;14817;57.104;-2.094;2023-04-25T05:57:30;5.55;;;1.42;;
27333;SDS011;14817;57.104;-2.094;2023-04-25T05:59:58;7.75;;;1.23;;
27333;SDS011;14817;57.104;-2.094;2023-04-25T06:02:38;5.13;;;1.30;;
27333;SDS011;14817;57.104;-2.094;2023-04-25T06:05:06;4.22;;;1.38;;
27333;SDS011;14817;57.104;-2.094;2023-04-25T06:07:34;2.22;;;0.93;;
27333;SDS011;14817;57.104;-2.094;2023-04-25T06:10:02;4.80;;;0.98;;
27333;SDS011;14817;57.104;-2.094;2023-04-25T06:12:32;4.57;;;1.10;;
27333;SDS011;14817;57.104;-2.094;2023-04-25T06:15:00;10.98;;;1.67;;
27333;SDS011;14817;57.104;-2.094;2023-04-25T06:17:30;2.72;;;1.10;;
27333;SDS011;14817;57.104;-2.094;2023-04-25T06:19:57;4.75;;;1.35;;
27333;SDS011;14817;57.104;-2.094;2023-04-25T06:22:24;3.30;;;1.00;;
27333;SDS011;14817;57.104;-2.094;2023-04-25T06:24:50;5.15;;;1.42;;
27333;SDS011;14817;57.104;-2.094;2023-04-25T06:27:17;6.72;;;1.40;;
27333;SDS011;14817;57.104;-2.094;2023-04-25T06:29:45;3.83;;;1.30;;
27333;SDS011;14817;57.104;-2.094;2023-04-25T06:32:13;4.63;;;0.95;;
27333;SDS011;14817;57.104;-2.094;2023-04-25T06:34:39;2.35;;;1.15;;
27333;SDS011;14817;57.104;-2.094;2023-04-25T06:37:06;5.95;;;1.30;;
27333;SDS011;14817;57.104;-2.094;2023-04-25T06:39:34;9.23;;;1.55;;
27333;SDS011;14817;57.104;-2.094;2023-04-25T06:42:06;5.82;;;1.17;;
27333;SDS011;14817;57.104;-2.094;2023-04-25T06:44:43;5.40;;;1.50;;
27333;SDS011;14817;57.104;-2.094;2023-04-25T06:47:11;8.27;;;1.50;;
27333;SDS011;14817;57.104;-2.094;2023-04-25T06:49:41;4.97;;;2.08;;
27333;SDS011;14817;57.104;-2.094;2023-04-25T06:52:08;5.28;;;1.63;;
27333;SDS011;14817;57.104;-2.094;2023-04-25T06:54:37;2.53;;;1.27;;
27333;SDS011;14817;57.104;-2.094;2023-04-25T06:57:27;2.55;;;1.20;;
27333;SDS011;14817;57.104;-2.094;2023-04-25T06:59:58;4.40;;;1.65;;
27333;SDS011;14817;57.104;-2.094;2023-04-25T07:02:27;2.78;;;1.00;;
27333;SDS011;14817;57.104;-2.094;2023-04-25T07:04:54;4.25;;;1.05;;
27333;SDS011;14817;57.104;-2.094;2023-04-25T07:09:56;4.00;;;1.00;;
27333;SDS011;14817;57.104;-2.094;2023-04-25T07:12:23;3.75;;;0.70;;
27333;SDS011;14817;57.104;-2.094;2023-04-25T07:14:50;5.15;;;1.20;;
27333;SDS011;14817;57.104;-2.094;2023-04-25T07:17:16;6.95;;;0.90;;
27333;SDS011;14817;57.104;-2.094;2023-04-25T07:19:44;2.85;;;0.88;;
27333;SDS011;14817;57.104;-2.094;2023-04-25T07:22:11;2.40;;;1.00;;
27333;SDS011;14817;57.104;-2.094;2023-04-25T07:24:40;5.82;;;1.00;;
27333;SDS011;14817;57.104;-2.094;2023-04-25T07:27:10;5.78;;;1.08;;
27333;SDS011;14817;57.104;-2.094;2023-04-25T07:29:48;3.50;;;0.73;;
27333;SDS011;14817;57.104;-2.094;2023-04-25T07:32:15;3.90;;;0.60;;
27333;SDS011;14817;57.104;-2.094;2023-04-25T07:34:42;2.83;;;0.82;;
27333;SDS011;14817;57.104;-2.094;2023-04-25T07:37:09;1.15;;;0.40;;
27333;SDS011;14817;57.104;-2.094;2023-04-25T07:39:47;3.17;;;0.63;;
27333;SDS011;14817;57.104;-2.094;2023-04-25T07:42:14;5.20;;;0.60;;
27333;SDS011;14817;57.104;-2.094;2023-04-25T07:44:43;1.80;;;0.60;;
27333;SDS011;14817;57.104;-2.094;2023-04-25T07:47:12;1.45;;;0.57;;
27333;SDS011;14817;57.104;-2.094;2023-04-25T07:49:40;2.42;;;0.50;;
27333;SDS011;14817;57.104;-2.094;2023-04-25T07:52:07;1.63;;;0.63;;
27333;SDS011;14817;57.104;-2.094;2023-04-25T07:54:36;3.38;;;0.60;;
27333;SDS011;14817;57.104;-2.094;2023-04-25T07:57:11;2.60;;;0.75;;
27333;SDS011;14817;57.104;-2.094;2023-04-25T07:59:42;1.75;;;0.50;;
27333;SDS011;14817;57.104;-2.094;2023-04-25T08:02:09;3.22;;;0.70;;
27333;SDS011;14817;57.104;-2.094;2023-04-25T08:04:38;2.30;;;0.63;;
27333;SDS011;14817;57.104;-2.094;2023-04-25T08:07:07;2.53;;;0.60;;
27333;SDS011;14817;57.104;-2.094;2023-04-25T08:09:41;3.28;;;0.75;;
27333;SDS011;14817;57.104;-2.094;2023-04-25T08:12:15;4.55;;;0.88;;
27333;SDS011;14817;57.104;-2.094;2023-04-25T08:14:42;1.13;;;0.60;;
27333;SDS011;14817;57.104;-2.094;2023-04-25T08:17:10;3.22;;;0.77;;
27333;SDS011;14817;57.104;-2.094;2023-04-25T08:19:39;2.47;;;0.75;;
27333;SDS011;14817;57.104;-2.094;2023-04-25T08:22:13;3.67;;;0.70;;
27333;SDS011;14817;57.104;-2.094;2023-04-25T08:24:49;4.35;;;1.00;;
27333;SDS011;14817;57.104;-2.094;2023-04-25T08:27:17;2.67;;;0.82;;
27333;SDS011;14817;57.104;-2.094;2023-04-25T08:29:45;2.92;;;0.70;;
27333;SDS011;14817;57.104;-2.094;2023-04-25T08:32:13;4.05;;;0.85;;
27333;SDS011;14817;57.104;-2.094;2023-04-25T08:34:50;4.78;;;0.68;;
27333;SDS011;14817;57.104;-2.094;2023-04-25T08:37:20;2.60;;;1.00;;
27333;SDS011;14817;57.104;-2.094;2023-04-25T08:39:54;1.95;;;0.80;;
27333;SDS011;14817;57.104;-2.094;2023-04-25T08:42:42;4.90;;;0.80;;
27333;SDS011;14817;57.104;-2.094;2023-04-25T08:45:09;3.30;;;0.88;;
27333;SDS011;14817;57.104;-2.094;2023-04-25T08:47:38;3.92;;;0.93;;
27333;SDS011;14817;57.104;-2.094;2023-04-25T08:50:06;4.95;;;1.02;;
27333;SDS011;14817;57.104;-2.094;2023-04-25T08:52:36;3.92;;;0.70;;
27333;SDS011;14817;57.104;-2.094;2023-04-25T08:55:13;3.67;;;0.80;;
27333;SDS011;14817;57.104;-2.094;2023-04-25T08:57:40;4.53;;;1.20;;
27333;SDS011;14817;57.104;-2.094;2023-04-25T09:00:12;4.60;;;1.30;;
27333;SDS011;14817;57.104;-2.094;2023-04-25T09:02:42;3.88;;;1.08;;
27333;SDS011;14817;57.104;-2.094;2023-04-25T09:05:12;3.72;;;1.10;;
27333;SDS011;14817;57.104;-2.094;2023-04-25T09:07:40;3.80;;;0.95;;
27333;SDS011;14817;57.104;-2.094;2023-04-25T09:10:07;4.68;;;0.98;;
27333;SDS011;14817;57.104;-2.094;2023-04-25T09:12:36;3.55;;;0.75;;
27333;SDS011;14817;57.104;-2.094;2023-04-25T09:15:07;4.53;;;0.90;;
27333;SDS011;14817;57.104;-2.094;2023-04-25T09:17:56;3.15;;;0.80;;
27333;SDS011;14817;57.104;-2.094;2023-04-25T09:20:26;5.25;;;0.60;;
27333;SDS011;14817;57.104;-2.094;2023-04-25T09:23:03;0.95;;;0.50;;
27333;SDS011;14817;57.104;-2.094;2023-04-25T09:25:34;1.25;;;0.60;;
27333;SDS011;14817;57.104;-2.094;2023-04-25T09:28:07;1.83;;;0.60;;
27333;SDS011;14817;57.104;-2.094;2023-04-25T09:30:34;4.50;;;1.00;;
27333;SDS011;14817;57.104;-2.094;2023-04-25T09:33:16;2.22;;;0.70;;
27333;SDS011;14817;57.104;-2.094;2023-04-25T09:35:47;1.52;;;0.43;;
27333;SDS011;14817;57.104;-2.094;2023-04-25T09:38:31;2.20;;;0.70;;
27333;SDS011;14817;57.104;-2.094;2023-04-25T09:41:07;1.40;;;0.47;;
27333;SDS011;14817;57.104;-2.094;2023-04-25T09:43:45;5.47;;;0.57;;
27333;SDS011;14817;57.104;-2.094;2023-04-25T09:46:13;1.50;;;0.50;;
27333;SDS011;14817;57.104;-2.094;2023-04-25T09:48:51;3.92;;;0.63;;
27333;SDS011;14817;57.104;-2.094;2023-04-25T09:51:31;5.00;;;0.90;;
27333;SDS011;14817;57.104;-2.094;2023-04-25T09:53:59;4.18;;;1.10;;
27333;SDS011;14817;57.104;-2.094;2023-04-25T09:56:34;2.80;;;0.73;;
27333;SDS011;14817;57.104;-2.094;2023-04-25T09:59:05;1.98;;;0.68;;
27333;SDS011;14817;57.104;-2.094;2023-04-25T10:01:35;2.90;;;0.77;;
27333;SDS011;14817;57.104;-2.094;2023-04-25T10:04:12;3.08;;;0.70;;
27333;SDS011;14817;57.104;-2.094;2023-04-25T10:07:00;3.00;;;0.88;;
27333;SDS011;14817;57.104;-2.094;2023-04-25T10:09:30;3.42;;;1.20;;
27333;SDS011;14817;57.104;-2.094;2023-04-25T10:12:02;6.20;;;1.10;;
27333;SDS011;14817;57.104;-2.094;2023-04-25T10:14:30;6.72;;;1.33;;
27333;SDS011;14817;57.104;-2.094;2023-04-25T10:16:58;4.03;;;1.05;;
27333;SDS011;14817;57.104;-2.094;2023-04-25T10:19:26;5.93;;;1.35;;
27333;SDS011;14817;57.104;-2.094;2023-04-25T10:21:55;3.33;;;0.88;;
27333;SDS011;14817;57.104;-2.094;2023-04-25T10:24:30;3.15;;;1.00;;
27333;SDS011;14817;57.104;-2.094;2023-04-25T10:26:57;4.30;;;1.20;;
27333;SDS011;14817;57.104;-2.094;2023-04-25T10:29:24;2.65;;;0.70;;
27333;SDS011;14817;57.104;-2.094;2023-04-25T10:31:52;2.25;;;1.00;;
27333;SDS011;14817;57.104;-2.094;2023-04-25T10:34:19;4.00;;;1.05;;
27333;SDS011;14817;57.104;-2.094;2023-04-25T10:39:27;2.70;;;1.10;;
27333;SDS011;14817;57.104;-2.094;2023-04-25T10:41:57;6.00;;;1.42;;
27333;SDS011;14817;57.104;-2.094;2023-04-25T10:44:28;2.55;;;1.05;;
27333;SDS011;14817;57.104;-2.094;2023-04-25T10:46:57;8.57;;;1.30;;
27333;SDS011;14817;57.104;-2.094;2023-04-25T10:49:29;3.90;;;1.25;;
27333;SDS011;14817;57.104;-2.094;2023-04-25T10:54:47;3.38;;;1.15;;
27333;SDS011;14817;57.104;-2.094;2023-04-25T11:02:48;4.20;;;1.17;;
27333;SDS011;14817;57.104;-2.094;2023-04-25T11:05:39;5.75;;;1.35;;
27333;SDS011;14817;57.104;-2.094;2023-04-25T11:08:27;5.28;;;1.33;;
27333;SDS011;14817;57.104;-2.094;2023-04-25T11:11:07;4.38;;;1.33;;
27333;SDS011;14817;57.104;-2.094;2023-04-25T11:13:34;3.80;;;1.40;;
27333;SDS011;14817;57.104;-2.094;2023-04-25T11:16:01;5.28;;;1.00;;
27333;SDS011;14817;57.104;-2.094;2023-04-25T11:18:40;5.30;;;1.02;;
27333;SDS011;14817;57.104;-2.094;2023-04-25T11:21:08;5.95;;;0.82;;
27333;SDS011;14817;57.104;-2.094;2023-04-25T11:23:35;2.92;;;0.70;;
27333;SDS011;14817;57.104;-2.094;2023-04-25T11:26:03;3.30;;;0.63;;
27333;SDS011;14817;57.104;-2.094;2023-04-25T11:28:30;2.47;;;0.90;;
27333;SDS011;14817;57.104;-2.094;2023-04-25T11:30:57;2.75;;;0.63;;
27333;SDS011;14817;57.104;-2.094;2023-04-25T11:33:24;3.22;;;0.80;;
27333;SDS011;14817;57.104;-2.094;2023-04-25T11:35:53;3.28;;;0.70;;
27333;SDS011;14817;57.104;-2.094;2023-04-25T11:38:22;2.17;;;0.80;;
27333;SDS011;14817;57.104;-2.094;2023-04-25T11:40:54;2.60;;;1.00;;
27333;SDS011;14817;57.104;-2.094;2023-04-25T11:43:22;2.95;;;1.08;;
27333;SDS011;14817;57.104;-2.094;2023-04-25T11:45:50;5.53;;;1.40;;
27333;SDS011;14817;57.104;-2.094;2023-04-25T11:48:18;6.32;;;1.77;;
27333;SDS011;14817;57.104;-2.094;2023-04-25T11:50:51;4.72;;;1.83;;
27333;SDS011;14817;57.104;-2.094;2023-04-25T11:53:20;6.47;;;1.90;;
27333;SDS011;14817;57.104;-2.094;2023-04-25T11:55:47;3.40;;;1.80;;
27333;SDS011;14817;57.104;-2.094;2023-04-25T11:58:14;2.83;;;0.75;;
27333;SDS011;14817;57.104;-2.094;2023-04-25T12:00:41;9.07;;;1.10;;
27333;SDS011;14817;57.104;-2.094;2023-04-25T12:03:17;3.08;;;0.90;;
27333;SDS011;14817;57.104;-2.094;2023-04-25T12:05:45;2.65;;;0.98;;
27333;SDS011;14817;57.104;-2.094;2023-04-25T12:08:13;4.22;;;0.90;;
27333;SDS011;14817;57.104;-2.094;2023-04-25T12:10:41;3.00;;;0.85;;
27333;SDS011;14817;57.104;-2.094;2023-04-25T12:13:22;7.60;;;1.13;;
27333;SDS011;14817;57.104;-2.094;2023-04-25T12:15:51;4.53;;;1.63;;
27333;SDS011;14817;57.104;-2.094;2023-04-25T12:18:24;10.27;;;1.27;;
27333;SDS011;14817;57.104;-2.094;2023-04-25T12:20:54;2.30;;;0.70;;
27333;SDS011;14817;57.104;-2.094;2023-04-25T12:23:28;3.35;;;1.17;;
27333;SDS011;14817;57.104;-2.094;2023-04-25T12:25:56;1.52;;;0.50;;
27333;SDS011;14817;57.104;-2.094;2023-04-25T12:28:24;2.97;;;0.60;;
27333;SDS011;14817;57.104;-2.094;2023-04-25T12:30:57;2.67;;;0.80;;
27333;SDS011;14817;57.104;-2.094;2023-04-25T12:33:26;2.60;;;0.70;;
27333;SDS011;14817;57.104;-2.094;2023-04-25T12:35:55;2.28;;;0.90;;
27333;SDS011;14817;57.104;-2.094;2023-04-25T12:38:23;4.13;;;0.80;;
27333;SDS011;14817;57.104;-2.094;2023-04-25T12:40:57;4.25;;;0.90;;
27333;SDS011;14817;57.104;-2.094;2023-04-25T12:43:25;5.05;;;0.90;;
27333;SDS011;14817;57.104;-2.094;2023-04-25T12:45:52;9.07;;;1.50;;
27333;SDS011;14817;57.104;-2.094;2023-04-25T12:48:20;5.88;;;1.70;;
27333;SDS011;14817;57.104;-2.094;2023-04-25T12:50:47;3.33;;;1.35;;
27333;SDS011;14817;57.104;-2.094;2023-04-25T12:53:19;7.97;;;1.63;;
27333;SDS011;14817;57.104;-2.094;2023-04-25T12:58:14;7.13;;;1.08;;
27333;SDS011;14817;57.104;-2.094;2023-04-25T13:00:44;2.15;;;0.73;;
27333;SDS011;14817;57.104;-2.094;2023-04-25T13:03:12;3.65;;;0.93;;
27333;SDS011;14817;57.104;-2.094;2023-04-25T13:05:39;2.72;;;0.90;;
27333;SDS011;14817;57.104;-2.094;2023-04-25T13:08:06;3.42;;;1.08;;
27333;SDS011;14817;57.104;-2.094;2023-04-25T13:10:33;4.00;;;0.95;;
27333;SDS011;14817;57.104;-2.094;2023-04-25T13:13:00;4.78;;;1.20;;
27333;SDS011;14817;57.104;-2.094;2023-04-25T13:15:27;3.95;;;1.23;;
27333;SDS011;14817;57.104;-2.094;2023-04-25T13:17:54;8.85;;;1.55;;
27333;SDS011;14817;57.104;-2.094;2023-04-25T13:20:22;3.50;;;1.08;;
27333;SDS011;14817;57.104;-2.094;2023-04-25T13:22:49;4.60;;;1.00;;
27333;SDS011;14817;57.104;-2.094;2023-04-25T13:25:16;4.55;;;1.30;;
27333;SDS011;14817;57.104;-2.094;2023-04-25T13:27:43;3.58;;;0.90;;
27333;SDS011;14817;57.104;-2.094;2023-04-25T13:30:11;3.30;;;0.90;;
27333;SDS011;14817;57.104;-2.094;2023-04-25T13:32:38;3.85;;;1.17;;
27333;SDS011;14817;57.104;-2.094;2023-04-25T13:35:06;3.05;;;1.30;;
27333;SDS011;14817;57.104;-2.094;2023-04-25T13:37:38;3.58;;;1.02;;
27333;SDS011;14817;57.104;-2.094;2023-04-25T13:40:07;4.32;;;0.95;;
27333;SDS011;14817;57.104;-2.094;2023-04-25T13:42:36;2.17;;;1.05;;
27333;SDS011;14817;57.104;-2.094;2023-04-25T13:45:04;5.00;;;0.98;;
27333;SDS011;14817;57.104;-2.094;2023-04-25T13:47:31;2.30;;;1.02;;
27333;SDS011;14817;57.104;-2.094;2023-04-25T13:49:58;6.63;;;1.48;;
27333;SDS011;14817;57.104;-2.094;2023-04-25T13:52:25;7.45;;;1.15;;
27333;SDS011;14817;57.104;-2.094;2023-04-25T13:54:52;3.80;;;1.38;;
27333;SDS011;14817;57.104;-2.094;2023-04-25T13:57:19;3.03;;;1.08;;
27333;SDS011;14817;57.104;-2.094;2023-04-25T13:59:46;3.42;;;1.13;;
27333;SDS011;14817;57.104;-2.094;2023-04-25T14:02:13;3.38;;;1.15;;
27333;SDS011;14817;57.104;-2.094;2023-04-25T14:04:40;3.67;;;1.05;;
27333;SDS011;14817;57.104;-2.094;2023-04-25T14:07:08;4.43;;;0.75;;
27333;SDS011;14817;57.104;-2.094;2023-04-25T14:09:35;3.50;;;1.30;;
27333;SDS011;14817;57.104;-2.094;2023-04-25T14:12:01;4.20;;;1.15;;
27333;SDS011;14817;57.104;-2.094;2023-04-25T14:14:29;3.05;;;0.90;;
27333;SDS011;14817;57.104;-2.094;2023-04-25T14:16:55;5.20;;;1.40;;
27333;SDS011;14817;57.104;-2.094;2023-04-25T14:19:23;2.38;;;0.80;;
27333;SDS011;14817;57.104;-2.094;2023-04-25T14:21:51;3.38;;;1.20;;
27333;SDS011;14817;57.104;-2.094;2023-04-25T14:24:17;6.28;;;1.35;;
27333;SDS011;14817;57.104;-2.094;2023-04-25T14:26:47;3.22;;;1.20;;
27333;SDS011;14817;57.104;-2.094;2023-04-25T14:29:13;4.10;;;1.27;;
27333;SDS011;14817;57.104;-2.094;2023-04-25T14:31:40;2.63;;;1.15;;
27333;SDS011;14817;57.104;-2.094;2023-04-25T14:34:07;3.10;;;0.70;;
27333;SDS011;14817;57.104;-2.094;2023-04-25T14:36:35;2.10;;;0.93;;
27333;SDS011;14817;57.104;-2.094;2023-04-25T14:39:02;4.70;;;1.50;;
27333;SDS011;14817;57.104;-2.094;2023-04-25T14:41:31;5.63;;;1.40;;
27333;SDS011;14817;57.104;-2.094;2023-04-25T14:43:58;5.40;;;1.63;;
27333;SDS011;14817;57.104;-2.094;2023-04-25T14:46:24;4.18;;;1.10;;
27333;SDS011;14817;57.104;-2.094;2023-04-25T14:48:52;2.17;;;1.10;;
27333;SDS011;14817;57.104;-2.094;2023-04-25T14:51:19;3.85;;;1.33;;
27333;SDS011;14817;57.104;-2.094;2023-04-25T14:53:46;5.00;;;1.55;;
27333;SDS011;14817;57.104;-2.094;2023-04-25T14:56:13;4.97;;;1.00;;
27333;SDS011;14817;57.104;-2.094;2023-04-25T14:58:40;4.85;;;1.58;;
27333;SDS011;14817;57.104;-2.094;2023-04-25T15:01:07;3.50;;;1.20;;
27333;SDS011;14817;57.104;-2.094;2023-04-25T15:03:34;6.00;;;1.58;;
27333;SDS011;14817;57.104;-2.094;2023-04-25T15:06:02;3.60;;;1.55;;
27333;SDS011;14817;57.104;-2.094;2023-04-25T15:08:29;4.20;;;1.13;;